createdAt,value
2019-05-22T00:03:36.644Z,1019.4
2019-05-22T00:09:09.246Z,1019.4
2019-05-22T00:14:41.783Z,1019.4
2019-05-22T00:20:14.356Z,1019.5
2019-05-22T00:25:46.980Z,1019.6
2019-05-22T00:31:19.416Z,1019.6
2019-05-22T00:36:52.004Z,1019.6
2019-05-22T00:42:24.513Z,1019.7
2019-05-22T00:47:56.969Z,1019.7
2019-05-22T00:53:29.492Z,1019.6
2019-05-22T00:59:02.014Z,1019.7
2019-05-22T01:04:34.424Z,1019.7
2019-05-22T01:10:07.195Z,1019.7
2019-05-22T01:15:39.295Z,1019.8
2019-05-22T01:21:11.713Z,1019.8
2019-05-22T01:26:44.019Z,1019.9
2019-05-22T01:32:16.569Z,1020
2019-05-22T01:37:49.611Z,1020
2019-05-22T01:43:22.221Z,1020
2019-05-22T01:48:55.392Z,1020
2019-05-22T01:54:28.527Z,1020
2019-05-22T02:00:01.630Z,1020.1
2019-05-22T02:05:33.956Z,1020.1
2019-05-22T02:11:06.291Z,1020.1
2019-05-22T02:16:53.852Z,1020
2019-05-22T02:22:12.038Z,1020.1
2019-05-22T02:27:45.199Z,1020
2019-05-22T02:33:17.716Z,1020
2019-05-22T02:38:50.033Z,1020
2019-05-22T02:44:22.327Z,1020.1
2019-05-22T02:49:54.511Z,1020.2
2019-05-22T02:55:26.707Z,1020.2
2019-05-22T03:00:58.920Z,1020.2
2019-05-22T03:06:31.206Z,1020.3
2019-05-22T03:12:03.489Z,1020.5
2019-05-22T03:17:35.702Z,1020.8
2019-05-22T03:23:08.591Z,1020.7
2019-05-22T03:28:40.180Z,1020.6
2019-05-22T03:34:12.416Z,1020.7
2019-05-22T03:39:44.694Z,1020.6
2019-05-22T03:45:16.942Z,1020.6
2019-05-22T03:50:49.138Z,1020.8
2019-05-22T03:56:21.377Z,1020.8
2019-05-22T04:01:53.592Z,1020.8
2019-05-22T04:07:25.756Z,1020.8
2019-05-22T04:12:57.954Z,1020.7
2019-05-22T04:18:31.639Z,1020.7
2019-05-22T04:24:02.310Z,1020.5
2019-05-22T04:29:35.024Z,1020.5
2019-05-22T04:35:08.201Z,1020.4
2019-05-22T04:40:41.423Z,1020.3
2019-05-22T04:46:14.653Z,1020.3
2019-05-22T04:51:47.882Z,1020.4
2019-05-22T04:57:20.900Z,1020.4
2019-05-22T05:02:53.335Z,1020.5
2019-05-22T05:08:26.400Z,1020.6
2019-05-22T05:13:59.602Z,1020.6
2019-05-22T05:19:32.858Z,1020.6
2019-05-22T05:25:06.101Z,1020.5
2019-05-22T05:30:39.448Z,1020.5
2019-05-22T05:36:12.750Z,1020.6
2019-05-22T05:41:46.093Z,1020.5
2019-05-22T05:47:19.478Z,1020.4
2019-05-22T05:52:52.885Z,1020.5
2019-05-22T05:58:25.701Z,1020.5
2019-05-22T06:03:59.043Z,1020.3
2019-05-22T06:09:32.493Z,1020.3
2019-05-22T06:15:05.217Z,1020.2
2019-05-22T06:20:37.935Z,1020.2
2019-05-22T06:26:10.760Z,1020.2
2019-05-22T06:31:43.509Z,1020.2
2019-05-22T06:37:16.618Z,1020.2
2019-05-22T06:42:50.356Z,1020.1
2019-05-22T06:48:24.055Z,1019.8
2019-05-22T06:53:57.872Z,1019.8
2019-05-22T06:59:31.863Z,1019.7
2019-05-22T07:05:05.994Z,1019.7
2019-05-22T07:10:39.996Z,1019.6
2019-05-22T07:16:14.217Z,1019.5
2019-05-22T07:21:48.550Z,1019.4
2019-05-22T07:27:22.827Z,1019.2
2019-05-22T07:32:57.293Z,1019.1
2019-05-22T07:38:31.718Z,1019
2019-05-22T07:44:06.191Z,1019.1
2019-05-22T07:49:40.711Z,1019.1
2019-05-22T07:55:15.188Z,1019
2019-05-22T08:00:49.727Z,1018.9
2019-05-22T08:06:24.265Z,1019
2019-05-22T08:11:58.897Z,1018.9
2019-05-22T08:17:33.505Z,1018.7
2019-05-22T08:23:08.135Z,1018.7
2019-05-22T08:28:42.872Z,1018.6
2019-05-22T08:34:17.654Z,1018.5
2019-05-22T08:39:52.607Z,1018.6
2019-05-22T08:45:27.461Z,1018.4
2019-05-22T08:51:02.473Z,1018.2
2019-05-22T08:56:37.547Z,1018.4
2019-05-22T09:02:12.722Z,1018.2
2019-05-22T09:07:47.854Z,1018.3
2019-05-22T09:13:22.755Z,1018.3
2019-05-22T09:18:58.067Z,1018
2019-05-22T09:24:33.813Z,1018.2
2019-05-22T09:30:08.822Z,1018.1
2019-05-22T09:35:44.377Z,1018.1
2019-05-22T09:41:19.726Z,1018.1
2019-05-22T09:46:55.216Z,1018.4
2019-05-22T09:52:30.254Z,1018.2
2019-05-22T09:58:05.692Z,1018
2019-05-22T10:03:41.059Z,1018.4
2019-05-22T10:09:16.239Z,1018.6
2019-05-22T10:14:51.236Z,1018.4
2019-05-22T10:20:26.140Z,1018.4
2019-05-22T10:26:01.399Z,1018.3
2019-05-22T10:31:36.787Z,1018.3
2019-05-22T10:37:12.251Z,1018.3
2019-05-22T10:42:47.577Z,1018.2
2019-05-22T10:48:22.926Z,1018
2019-05-22T10:53:58.408Z,1018.1
2019-05-22T10:59:33.980Z,1018.1
2019-05-22T11:10:45.888Z,1017.9
2019-05-22T11:16:21.790Z,1017.9
2019-05-22T11:21:57.522Z,1017.8
2019-05-22T11:27:33.199Z,1017.8
2019-05-22T11:33:08.735Z,1017.8
2019-05-22T11:38:44.478Z,1017.7
2019-05-22T11:44:20.504Z,1017.8
2019-05-22T11:49:55.735Z,1017.7
2019-05-22T11:55:43.331Z,1017.7
2019-05-22T12:01:07.283Z,1017.4
2019-05-22T12:06:43.131Z,1017.5
2019-05-22T12:12:18.604Z,1017.2
2019-05-22T12:17:54.308Z,1017.4
2019-05-22T12:23:30.341Z,1017.3
2019-05-22T12:29:06.378Z,1017.3
2019-05-22T12:34:41.940Z,1017.3
2019-05-22T12:40:17.489Z,1017
2019-05-22T12:45:53.571Z,1017.1
2019-05-22T12:51:29.821Z,1017.3
2019-05-22T12:57:04.881Z,1017.3
2019-05-22T13:02:42.384Z,1017.3
2019-05-22T13:08:20.462Z,1017.5
2019-05-22T13:13:55.643Z,1017.5
2019-05-22T13:19:30.670Z,1017.5
2019-05-22T13:25:05.109Z,1017.4
2019-05-22T13:30:39.417Z,1017.4
2019-05-22T13:36:14.334Z,1017.4
2019-05-22T13:41:49.357Z,1017.4
2019-05-22T13:47:24.035Z,1017.2
2019-05-22T13:52:58.374Z,1017.2
2019-05-22T13:58:32.432Z,1017.2
2019-05-22T14:04:07.192Z,1017.3
2019-05-22T14:09:42.116Z,1017.2
2019-05-22T14:15:17.055Z,1017
2019-05-22T14:20:51.246Z,1017.1
2019-05-22T14:26:25.582Z,1016.8
2019-05-22T14:32:01.023Z,1016.6
2019-05-22T14:37:36.792Z,1016.5
2019-05-22T14:43:12.693Z,1016.3
2019-05-22T14:48:49.243Z,1016.3
2019-05-22T14:54:25.816Z,1016.3
2019-05-22T15:00:02.512Z,1016.3
2019-05-22T15:05:40.588Z,1016.4
2019-05-22T15:11:16.262Z,1016.4
2019-05-22T15:16:53.160Z,1016.4
2019-05-22T15:22:29.768Z,1016.3
2019-05-22T15:28:06.503Z,1016.4
2019-05-22T15:33:43.051Z,1016.2
2019-05-22T15:39:19.795Z,1016.2
2019-05-22T15:44:56.692Z,1016.2
2019-05-22T15:50:33.409Z,1016.2
2019-05-22T15:56:10.218Z,1016
2019-05-22T16:07:24.776Z,1016.4
2019-05-22T16:13:01.926Z,1016.3
2019-05-22T16:18:38.449Z,1016.4
2019-05-22T16:24:15.014Z,1016.5
2019-05-22T16:29:51.398Z,1016.7
2019-05-22T16:35:27.630Z,1016.6
2019-05-22T16:41:03.914Z,1016.7
2019-05-22T16:46:40.100Z,1016.8
2019-05-22T16:52:16.245Z,1016.9
2019-05-22T16:57:52.301Z,1017.1
2019-05-22T17:03:28.202Z,1017.1
2019-05-22T17:09:04.420Z,1017.1
2019-05-22T17:14:40.832Z,1017.2
2019-05-22T17:20:16.701Z,1017.2
2019-05-22T17:25:52.263Z,1017.5
2019-05-22T17:31:27.698Z,1017.4
2019-05-22T17:37:03.202Z,1017.4
2019-05-22T17:42:38.736Z,1017.4
2019-05-22T17:48:14.312Z,1017.5
2019-05-22T17:53:49.763Z,1017.6
2019-05-22T17:59:25.713Z,1017.8
2019-05-22T18:05:01.051Z,1017.8
2019-05-22T18:10:40.088Z,1017.9
2019-05-22T18:16:11.383Z,1017.9
2019-05-22T18:21:46.433Z,1018
2019-05-22T18:27:25.016Z,1018
2019-05-22T20:34:33.834Z,1019.9
2019-05-22T20:40:08.085Z,1020
2019-05-22T20:45:41.531Z,1020.1
2019-05-22T20:51:15.416Z,1020.1
2019-05-22T20:56:49.150Z,1020.2
2019-05-22T21:02:22.965Z,1020.4
2019-05-22T21:07:56.694Z,1020.4
2019-05-22T21:13:29.940Z,1020.4
2019-05-22T21:19:03.174Z,1020.4
2019-05-22T21:24:36.556Z,1020.4
2019-05-22T21:30:08.747Z,1020.5
2019-05-22T21:35:41.583Z,1020.5
2019-05-22T21:41:14.385Z,1020.6
2019-05-22T21:46:47.095Z,1020.7
2019-05-22T21:52:19.857Z,1020.5
2019-05-22T21:57:52.535Z,1020.6
2019-05-22T22:03:25.205Z,1020.7
2019-05-22T22:08:57.819Z,1020.7
2019-05-22T22:14:30.437Z,1020.9
2019-05-22T22:20:02.993Z,1021
2019-05-22T22:25:35.489Z,1020.8
2019-05-22T22:31:08.022Z,1020.9
2019-05-22T22:36:40.532Z,1021
2019-05-22T22:42:13.042Z,1021
2019-05-22T22:47:45.473Z,1020.9
2019-05-22T22:53:18.030Z,1020.9
2019-05-22T22:58:51.321Z,1020.9
2019-05-22T23:04:24.685Z,1020.9
2019-05-22T23:09:58.013Z,1020.9
2019-05-22T23:15:31.339Z,1021
2019-05-22T23:21:04.674Z,1021
2019-05-22T23:26:37.999Z,1021.1
2019-05-22T23:32:11.268Z,1021
2019-05-22T23:37:44.567Z,1021.2
2019-05-22T23:43:17.898Z,1021.2
2019-05-22T23:48:51.117Z,1021.2
2019-05-22T23:54:24.259Z,1021.2
2019-05-22T23:59:57.481Z,1021.2
